• Join FlightAware (Why Join?)
  • Login
  • US Flag 
04:07AM EDT


 

Airport Tracker/Info


-or-


 

Live Flight TrackerFlight Track Log ✈ TAM8008 ✈ 15-Jun-2013 ✈ SBGR / GRU - SABE / AEP

Flight Track Log - Related Links

Times and Time Zones

All times are in EDT time to prevent confusion due to time zone crossing. See the TAM8008 flight status page for this flight to view local times or setup timezone preferences in your user account.

Time Position Orientation Groundspeed Altitude Reporting Facility
EDT Latitude Longitude Course Direction KTS MPH feet Rate Location/Type
05:40PM -23.4310 -46.4840 163° South 9 10  Level FlightAware
05:40PM -23.4320 -46.4840 180° South 5 6 600 Level FlightAware
05:41PM -23.4330 -46.4840 180° South 5 6 720 Level FlightAware
05:42PM -23.4340 -46.4830 137° Southeast 12 14 780 Level FlightAware
05:44PM -23.4330 -46.4770 80° East 105 121 1,380 Level FlightAware
05:44PM -23.4290 -46.4620 74° East 162 186 2,500 3,600 Climbing FlightAware
05:45PM -23.4340 -46.4250 98° East 197 227 4,200 2,220 Climbing FlightAware
05:45PM -23.4450 -46.4210 162° South 209 241 4,700 1,800 Climbing FlightAware
05:45PM -23.4590 -46.4240 191° South 218 251 5,300 1,860 Climbing FlightAware
05:45PM -23.4670 -46.4330 226° Southwest 208 239 5,900 3,000 Climbing FlightAware
05:46PM -23.4810 -46.4540 234° Southwest 206 237 7,200 2,820 Climbing FlightAware
05:46PM -23.5130 -46.4980 232° Southwest 263 303 8,600 2,160 Climbing FlightAware
05:47PM -23.5410 -46.5350 230° Southwest 284 327 9,600 2,040 Climbing FlightAware
05:48PM -23.5760 -46.5830 231° Southwest 318 366 11,200 3,060 Climbing FlightAware
05:48PM -23.6180 -46.6410 232° Southwest 318 366 13,900 3,660 Climbing FlightAware
05:49PM -23.6600 -46.6850 224° Southwest 315 362 16,300 2,460 Climbing FlightAware
05:50PM -23.7070 -46.7300 221° Southwest 356 410 17,200 2,040 Climbing FlightAware
05:50PM -23.7610 -46.7820 221° Southwest 359 413 19,200 2,220 Climbing FlightAware
05:51PM -23.8170 -46.8360 221° Southwest 377 434 20,500 1,920 Climbing FlightAware
05:52PM -23.8660 -46.8840 222° Southwest 383 441 21,900 2,220 Climbing FlightAware
05:53PM -23.9250 -46.9400 221° Southwest 386 444 23,500 2,040 Climbing FlightAware
05:53PM -23.9800 -46.9940 222° Southwest 393 452 24,800 1,680 Climbing FlightAware
05:54PM -24.0450 -47.0570 222° Southwest 405 466 26,000 1,560 Climbing FlightAware
05:55PM -24.1020 -47.1130 222° Southwest 414 476 27,100 1,560 Climbing FlightAware
05:55PM -24.1570 -47.1660 221° Southwest 419 482 28,100 1,500 Climbing FlightAware
05:56PM -24.2210 -47.2280 221° Southwest 427 491 29,200 1,440 Climbing FlightAware
05:57PM -24.2840 -47.2900 222° Southwest 432 497 30,200 1,320 Climbing FlightAware
05:58PM -24.3500 -47.3540 221° Southwest 433 498 31,200 1,860 Climbing FlightAware
05:58PM -24.4110 -47.4140 222° Southwest 414 476 32,900 2,460 Climbing FlightAware
05:59PM -24.4660 -47.4680 222° Southwest 395 455 34,500 1,920 Climbing FlightAware
06:00PM -24.5290 -47.5300 222° Southwest 393 452 35,700 1,320 Climbing FlightAware
06:00PM -24.5750 -47.5760 222° Southwest 391 450 36,400 1,200 Climbing FlightAware
06:01PM -24.6550 -47.6550 222° Southwest 387 445 37,600 960 Climbing FlightAware
06:02PM -24.7090 -47.7080 222° Southwest 376 433 38,000 300 Climbing FlightAware
06:03PM -24.7610 -47.7590 222° Southwest 379 436 38,000  Level FlightAware
06:03PM -24.8150 -47.8130 222° Southwest 379 436 38,000  Level FlightAware
06:04PM -24.8750 -47.8710 221° Southwest 385 443 38,000  Level FlightAware
06:05PM -24.9330 -47.9290 222° Southwest 386 444 38,000  Level FlightAware
06:05PM -24.9870 -47.9820 222° Southwest 385 443 38,000  Level FlightAware
06:06PM -25.0440 -48.0390 222° Southwest 384 442 38,000  Level FlightAware
06:07PM -25.1000 -48.0950 222° Southwest 382 440 38,000  Level FlightAware
06:07PM -25.1460 -48.1410 222° Southwest 381 438 38,000  Level FlightAware
06:08PM -25.2090 -48.2030 222° Southwest 380 437 38,000  Level FlightAware
06:09PM -25.2650 -48.2600 223° Southwest 380 437 38,000  Level FlightAware
06:10PM -25.3380 -48.3320 222° Southwest 380 437 38,000  Level FlightAware
06:10PM -25.3900 -48.3850 223° Southwest 380 437 38,000  Level FlightAware
06:11PM -25.4470 -48.4420 222° Southwest 382 440 38,000  Level FlightAware
06:12PM -25.5020 -48.4970 222° Southwest 382 440 38,000  Level FlightAware
06:13PM -25.5600 -48.5520 221° Southwest 389 448 38,000  Level FlightAware
06:13PM -25.6070 -48.5930 218° Southwest 389 448 38,000  Level FlightAware
06:14PM -25.6720 -48.6510 219° Southwest 390 449 38,000  Level FlightAware
06:15PM -25.7270 -48.7000 219° Southwest 392 451 38,000  Level FlightAware
06:15PM -25.7940 -48.7590 218° Southwest 392 451 38,000  Level FlightAware
06:16PM -25.8560 -48.8140 219° Southwest 394 453 38,000  Level FlightAware
06:17PM -25.9090 -48.8620 219° Southwest 395 455 38,000  Level FlightAware
06:17PM -25.9740 -48.9200 219° Southwest 399 459 38,000  Level FlightAware
06:18PM -26.0340 -48.9740 219° Southwest 401 461 38,000  Level FlightAware
06:19PM -26.0920 -49.0270 219° Southwest 400 460 38,000  Level FlightAware
06:20PM -26.1580 -49.0860 219° Southwest 399 459 38,000  Level FlightAware
06:20PM -26.2130 -49.1360 219° Southwest 397 457 38,000  Level FlightAware
06:21PM -26.2720 -49.1880 218° Southwest 398 458 38,000  Level FlightAware
06:22PM -26.3320 -49.2420 219° Southwest 398 458 38,000  Level FlightAware
06:22PM -26.3990 -49.3030 219° Southwest 397 457 38,000  Level FlightAware
06:23PM -26.4570 -49.3550 219° Southwest 397 457 38,000  Level FlightAware
06:24PM -26.5130 -49.4060 219° Southwest 399 459 38,000  Level FlightAware
06:24PM -26.5750 -49.4620 219° Southwest 400 460 38,000  Level FlightAware
06:25PM -26.6600 -49.5400 219° Southwest 402 463 38,000  Level FlightAware
06:26PM -26.7210 -49.5950 219° Southwest 403 464 38,000  Level FlightAware
06:27PM -26.7830 -49.6510 219° Southwest 403 464 38,000  Level FlightAware
06:28PM -26.8610 -49.7230 219° Southwest 403 464 38,000  Level FlightAware
06:28PM -26.9130 -49.7700 219° Southwest 403 464 38,000  Level FlightAware
06:29PM -26.9770 -49.8290 219° Southwest 403 464 38,000  Level FlightAware
06:30PM -27.0330 -49.8800 219° Southwest 402 463 38,000  Level FlightAware
06:31PM -27.0990 -49.9400 219° Southwest 401 461 38,000  Level FlightAware
06:31PM -27.1550 -49.9920 220° Southwest 403 464 38,000  Level FlightAware
06:32PM -27.2140 -50.0460 219° Southwest 403 464 38,000  Level FlightAware
06:33PM -27.2670 -50.0950 219° Southwest 404 465 38,000  Level FlightAware
06:33PM -27.3480 -50.1700 219° Southwest 405 466 38,000  Level FlightAware
06:34PM -27.4070 -50.2250 220° Southwest 406 467 38,000  Level FlightAware
06:35PM -27.4820 -50.2950 220° Southwest 406 467 38,000  Level FlightAware
06:36PM -27.5520 -50.3590 219° Southwest 408 470 38,000  Level FlightAware
06:36PM -27.5980 -50.4020 220° Southwest 409 471 38,000  Level FlightAware
06:37PM -27.6640 -50.4630 219° Southwest 409 471 38,000  Level FlightAware
06:38PM -27.7320 -50.5270 220° Southwest 411 473 38,000  Level FlightAware
06:39PM -27.7970 -50.5870 219° Southwest 412 474 38,000  Level FlightAware
06:39PM -27.8560 -50.6420 219° Southwest 411 473 38,000  Level FlightAware
06:40PM -27.9170 -50.7000 220° Southwest 411 473 38,000  Level FlightAware
06:41PM -27.9750 -50.7540 219° Southwest 411 473 38,000  Level FlightAware
06:41PM -28.0400 -50.8140 219° Southwest 411 473 38,000  Level FlightAware
06:42PM -28.1010 -50.8720 220° Southwest 413 475 38,000  Level FlightAware
06:43PM -28.1630 -50.9310 220° Southwest 413 475 38,000  Level FlightAware
06:43PM -28.2280 -50.9920 220° Southwest 415 478 38,000  Level FlightAware
06:44PM -28.2900 -51.0510 220° Southwest 416 479 38,000  Level FlightAware
06:45PM -28.3490 -51.1070 220° Southwest 417 480 38,000  Level FlightAware
06:45PM -28.4090 -51.1630 219° Southwest 416 479 38,000  Level FlightAware
06:46PM -28.4750 -51.2260 220° Southwest 417 480 38,000  Level FlightAware
06:47PM -28.5340 -51.2820 220° Southwest 419 482 38,000  Level FlightAware
06:48PM -28.5950 -51.3400 220° Southwest 420 483 38,000  Level FlightAware
06:48PM -28.6580 -51.4000 220° Southwest 420 483 38,000  Level FlightAware
06:49PM -28.7250 -51.4640 220° Southwest 419 482 38,000  Level FlightAware
06:50PM -28.7890 -51.5250 220° Southwest 417 480 38,000  Level FlightAware
06:50PM -28.8500 -51.5850 221° Southwest 416 479 38,000  Level FlightAware
06:51PM -28.9110 -51.6430 220° Southwest 416 479 38,000  Level FlightAware
06:52PM -28.9740 -51.7040 220° Southwest 417 480 38,000  Level FlightAware
06:52PM -29.0350 -51.7620 220° Southwest 417 480 38,000  Level FlightAware
06:53PM -29.0970 -51.8220 220° Southwest 417 480 38,000  Level FlightAware
06:54PM -29.1540 -51.8760 220° Southwest 418 481 38,000  Level FlightAware
06:55PM -29.2140 -51.9350 221° Southwest 419 482 38,000  Level FlightAware
06:55PM -29.2810 -52.0000 220° Southwest 420 483 38,000  Level FlightAware
06:56PM -29.3400 -52.0580 221° Southwest 419 482 38,000  Level FlightAware
06:57PM -29.4060 -52.1220 220° Southwest 418 481 38,000  Level FlightAware
06:57PM -29.4680 -52.1820 220° Southwest 418 481 38,000  Level FlightAware
06:58PM -29.5330 -52.2450 220° Southwest 419 482 38,000  Level FlightAware
06:59PM -29.5930 -52.3050 221° Southwest 418 481 38,000  Level FlightAware
07:00PM -29.6580 -52.3680 220° Southwest 417 480 38,000  Level FlightAware
07:00PM -29.7150 -52.4240 220° Southwest 416 479 38,000  Level FlightAware
07:01PM -29.7730 -52.4810 220° Southwest 416 479 38,000  Level FlightAware
07:02PM -29.8220 -52.5290 220° Southwest 416 479 38,000  Level FlightAware
07:02PM -29.8740 -52.5810 221° Southwest 418 481 38,000  Level FlightAware
07:03PM -29.9550 -52.6610 221° Southwest 418 481 38,000  Level FlightAware
07:04PM -30.0180 -52.7230 220° Southwest 419 482 38,000  Level FlightAware
07:04PM -30.0850 -52.7900 221° Southwest 420 483 38,000  Level FlightAware
07:05PM -30.1650 -52.8690 220° Southwest 421 484 38,000  Level FlightAware
07:06PM -30.2260 -52.9300 221° Southwest 423 487 38,000  Level FlightAware
07:07PM -30.2940 -52.9970 220° Southwest 423 487 38,000  Level FlightAware
07:07PM -30.3500 -53.0540 221° Southwest 422 486 38,000  Level FlightAware
07:08PM -30.4190 -53.1230 221° Southwest 421 484 38,000  Level FlightAware
07:09PM -30.4770 -53.1810 221° Southwest 421 484 38,000  Level FlightAware
07:10PM -30.5440 -53.2480 221° Southwest 421 484 38,000  Level FlightAware
07:10PM -30.6020 -53.3070 221° Southwest 422 486 38,000  Level FlightAware
07:11PM -30.6770 -53.3820 221° Southwest 423 487 38,000  Level FlightAware
07:12PM -30.7330 -53.4380 221° Southwest 423 487 38,000  Level FlightAware
07:12PM -30.8020 -53.5080 221° Southwest 424 488 38,000  Level FlightAware
07:13PM -30.8610 -53.5680 221° Southwest 423 487 38,000  Level FlightAware
07:14PM -30.9290 -53.6370 221° Southwest 425 489 38,000  Level FlightAware
07:15PM -30.9880 -53.6970 221° Southwest 423 487 38,000  Level FlightAware
07:15PM -31.0520 -53.7620 221° Southwest 420 483 38,000  Level FlightAware
07:16PM -31.1110 -53.8220 221° Southwest 420 483 38,000  Level FlightAware
07:17PM -31.1670 -53.8790 221° Southwest 421 484 38,000  Level FlightAware
07:17PM -31.2340 -53.9480 221° Southwest 423 487 38,000  Level FlightAware
07:18PM -31.2990 -54.0150 221° Southwest 425 489 38,000  Level FlightAware
07:19PM -31.3540 -54.0710 221° Southwest 425 489 38,000  Level FlightAware
07:19PM -31.4150 -54.1370 223° Southwest 422 486 38,000  Level FlightAware
07:20PM -31.4690 -54.2010 225° Southwest 420 483 38,000  Level FlightAware
07:21PM -31.5330 -54.2770 225° Southwest 418 481 38,000  Level FlightAware
07:22PM -31.5780 -54.3280 224° Southwest 418 481 38,000  Level FlightAware
07:22PM -31.6320 -54.3930 226° Southwest 418 481 38,000  Level FlightAware
07:23PM -31.6740 -54.4420 225° Southwest 418 481 38,000  Level FlightAware
07:24PM -31.7300 -54.5070 225° Southwest 418 481 38,000  Level FlightAware
07:24PM -31.7730 -54.5580 225° Southwest 418 481 38,000  Level FlightAware
07:25PM -31.8170 -54.6100 225° Southwest 418 481 38,000  Level FlightAware
07:26PM -31.8730 -54.6760 225° Southwest 418 481 38,000  Level FlightAware
07:26PM -31.9160 -54.7260 225° Southwest 418 481 38,000  Level FlightAware
07:27PM -31.9720 -54.7920 225° Southwest 418 481 38,000  Level FlightAware
07:28PM -32.0130 -54.8410 225° Southwest 418 481 38,000  Level FlightAware
07:29PM -32.0700 -54.9090 225° Southwest 418 481 38,000  Level FlightAware
07:29PM -32.1120 -54.9580 225° Southwest 418 481 38,000  Level FlightAware
07:31PM -32.3950 -55.3080 226° Southwest 417 480 38,000  Level FlightAware
07:32PM -32.4450 -55.3680 225° Southwest 415 478 38,000  Level FlightAware
07:33PM -32.5040 -55.4410 226° Southwest 414 476 38,000  Level FlightAware
07:34PM -32.5710 -55.5230 226° Southwest 415 478 38,000  Level FlightAware
07:34PM -32.6270 -55.5910 226° Southwest 415 478 38,000  Level FlightAware
07:35PM -32.6930 -55.6720 226° Southwest 415 478 38,000  Level FlightAware
07:36PM -32.7680 -55.7640 226° Southwest 414 476 38,000  Level FlightAware
07:37PM -32.8430 -55.8570 226° Southwest 415 478 38,000  Level FlightAware
07:38PM -32.8940 -55.9190 226° Southwest 415 478 38,000  Level FlightAware
07:38PM -32.9470 -55.9850 226° Southwest 415 478 38,000  Level FlightAware
07:39PM -33.0120 -56.0650 226° Southwest 414 476 38,000  Level FlightAware
07:40PM -33.0560 -56.1200 226° Southwest 414 476 38,000  Level FlightAware
07:40PM -33.1210 -56.2010 226° Southwest 414 476 38,000  Level FlightAware
07:41PM -33.1670 -56.2580 226° Southwest 413 475 38,000  Level FlightAware
07:42PM -33.2280 -56.3350 227° Southwest 413 475 38,000  Level FlightAware
07:42PM -33.2790 -56.3990 226° Southwest 414 476 38,000  Level FlightAware
07:43PM -33.3390 -56.4730 226° Southwest 417 480 38,000  Level FlightAware
07:44PM -33.3950 -56.5420 226° Southwest 418 481 38,000 -1,200 Level FlightAware
07:45PM -33.4580 -56.6360 231° Southwest 431 496 36,200 -2,220 Descending FlightAware
07:45PM -33.5100 -56.7080 229° Southwest 414 476 34,800 -2,280 Descending FlightAware
07:46PM -33.5560 -56.7730 230° Southwest 405 466 33,300 -2,340 Descending FlightAware
07:47PM -33.6120 -56.8510 229° Southwest 398 458 31,600 -2,280 Descending FlightAware
07:47PM -33.6590 -56.9170 229° Southwest 394 453 30,100 -2,220 Descending FlightAware
07:48PM -33.7090 -56.9870 229° Southwest 389 448 28,600 -2,160 Descending FlightAware
07:49PM -33.7570 -57.0550 230° Southwest 385 443 27,100 -2,220 Descending FlightAware
07:50PM -33.8060 -57.1240 229° Southwest 380 437 25,600 -2,100 Descending FlightAware
07:50PM -33.8310 -57.1600 230° Southwest 377 434 24,800 -2,160 Descending FlightAware
07:51PM -33.8970 -57.2530 229° Southwest 371 427 22,700 -2,160 Descending FlightAware
07:52PM -33.9420 -57.3170 230° Southwest 366 421 21,300 -1,980 Descending FlightAware
07:52PM -33.9800 -57.3700 229° Southwest 362 417 20,100 -2,160 Descending FlightAware
07:53PM -34.0330 -57.4460 230° Southwest 352 405 18,300 -2,280 Descending FlightAware
07:54PM -34.0780 -57.5110 230° Southwest 340 391 16,700 -2,100 Descending FlightAware
07:54PM -34.1190 -57.5690 229° Southwest 331 381 15,400 -1,980 Descending FlightAware
07:55PM -34.1570 -57.6240 230° Southwest 323 372 14,100 -1,980 Descending FlightAware
07:56PM -34.1990 -57.6840 230° Southwest 315 362 12,700 -1,920 Descending FlightAware
07:56PM -34.2380 -57.7400 230° Southwest 310 357 11,400 -1,680 Descending FlightAware
07:57PM -34.2770 -57.7980 231° Southwest 301 346 10,300 -1,020 Descending FlightAware
07:58PM -34.3130 -57.8490 229° Southwest 286 329 10,000 -480 Descending FlightAware
07:58PM -34.3190 -57.8640 244° Southwest 283 326 9,900 -480 Descending FlightAware
07:58PM -34.3220 -57.8850 260° West 274 315 9,800 -420 Descending FlightAware
07:59PM -34.3220 -57.9110 270° West 272 313 9,700 -300 Descending FlightAware
07:59PM -34.3220 -57.9500 270° West 271 312 9,600 -420 Descending FlightAware
08:00PM -34.3230 -57.9970 269° West 270 311 9,300 -540 Descending FlightAware
08:00PM -34.3230 -58.0380 270° West 271 312 9,100 -600 Descending FlightAware
08:00PM -34.3240 -58.0800 268° West 272 313 8,800 -600 Descending FlightAware
08:01PM -34.3240 -58.1190 270° West 270 311 8,600 -480 Descending FlightAware
08:01PM -34.3240 -58.1650 270° West 267 307 8,400 -480 Descending FlightAware
08:02PM -34.3250 -58.2030 268° West 267 307 8,200 -480 Descending FlightAware
08:02PM -34.3250 -58.2450 270° West 266 306 8,000 -540 Descending FlightAware
08:03PM -34.3250 -58.2900 270° West 264 304 7,700 -600 Descending FlightAware
08:03PM -34.3280 -58.3070 258° West 270 311 7,600 -480 Descending FlightAware
08:03PM -34.3400 -58.3260 233° Southwest 281 323 7,500 -420 Descending FlightAware
08:04PM -34.3680 -58.3550 221° Southwest 282 325 7,300 -540 Descending FlightAware
08:04PM -34.3960 -58.3830 220° Southwest 280 322 7,000 -540 Descending FlightAware
08:05PM -34.4230 -58.4110 221° Southwest 280 322 6,800 -480 Descending FlightAware
08:05PM -34.4480 -58.4380 222° Southwest 279 321 6,600 -540 Descending FlightAware
08:06PM -34.4780 -58.4700 221° Southwest 279 321 6,300 -540 Descending FlightAware
08:06PM -34.4930 -58.4860 221° Southwest 278 320 6,200 -420 Descending FlightAware
08:06PM -34.5210 -58.5150 220° Southwest 275 316 6,000 -780 Descending FlightAware
08:07PM -34.5500 -58.5400 215° Southwest 285 328 5,500 -1,320 Descending FlightAware
08:07PM -34.5630 -58.5420 187° South 293 337 5,200 -1,620 Descending FlightAware
08:07PM -34.5930 -58.5280 159° South 300 345 4,600 -1,260 Descending FlightAware
08:08PM -34.6030 -58.5110 126° Southeast 294 338 4,300 -960 Descending FlightAware
08:08PM -34.6070 -58.5000 114° Southeast 292 336 4,100 -1,440 Descending FlightAware
08:08PM -34.6300 -58.4390 115° Southeast 279 321 3,300 -1,200 Descending FlightAware
08:09PM -34.6460 -58.4010 117° Southeast 261 300 3,000 -360 Descending FlightAware
08:09PM -34.6570 -58.3730 116° Southeast 241 277 3,000 -120 Level FlightAware
08:10PM -34.6720 -58.3370 117° Southeast 215 247 2,900 -420 Descending FlightAware
08:10PM -34.6770 -58.3190 109° East 204 235 2,700 -540 Descending FlightAware
08:11PM -34.6670 -58.2940 64° Northeast 168 193 2,500 -660 Descending FlightAware
08:11PM -34.6420 -58.2870 13° North 154 177 2,000 -540 Descending FlightAware
08:12PM -34.6260 -58.2950 338° Northwest 157 181 2,000 -240 Level FlightAware
08:12PM -34.6160 -58.3140 303° West 144 166 1,800 -600 Descending FlightAware
08:12PM -34.6060 -58.3310 306° West 128 147 1,500 -780 Descending FlightAware
08:13PM -34.5970 -58.3470 304° West 122 140 1,100 -780 Descending FlightAware
08:13PM -34.5880 -58.3630 304° West 121 139 800 -660 Descending FlightAware
08:14PM -34.5790 -58.3800 303° West 121 139 500 -360 Descending FlightAware
08:15PM -34.5680 -58.4000 304° West 123 142 400 -180 Descending FlightAware
08:17PM -34.5592 -58.4156 304° West  Level Estimated
08:18PM -34.5592 -58.4156 147° Southeast  Level Estimated
08:19PM -34.5592 -58.4156 33° Northeast  Level Estimated